sensor_id;sensor_type;location;lat;lon;timestamp;temperature;humidity
21244;DHT22;10780;50.942;4.028;2023-03-23T00:01:05;13.50;99.90
21244;DHT22;10780;50.942;4.028;2023-03-23T00:03:32;13.60;99.90
21244;DHT22;10780;50.942;4.028;2023-03-23T00:05:58;13.50;99.90
21244;DHT22;10780;50.942;4.028;2023-03-23T00:08:33;13.50;99.90
21244;DHT22;10780;50.942;4.028;2023-03-23T00:10:59;13.50;99.90
21244;DHT22;10780;50.942;4.028;2023-03-23T00:13:28;13.60;99.90
21244;DHT22;10780;50.942;4.028;2023-03-23T00:15:54;13.50;99.90
21244;DHT22;10780;50.942;4.028;2023-03-23T00:18:20;13.50;99.90
21244;DHT22;10780;50.942;4.028;2023-03-23T00:20:48;13.40;99.90
21244;DHT22;10780;50.942;4.028;2023-03-23T00:23:15;13.40;99.90
21244;DHT22;10780;50.942;4.028;2023-03-23T00:25:45;13.40;99.90
21244;DHT22;10780;50.942;4.028;2023-03-23T00:28:11;13.40;99.90
21244;DHT22;10780;50.942;4.028;2023-03-23T00:30:39;13.50;99.90
21244;DHT22;10780;50.942;4.028;2023-03-23T00:33:04;13.40;99.90
21244;DHT22;10780;50.942;4.028;2023-03-23T00:35:30;13.40;99.90
21244;DHT22;10780;50.942;4.028;2023-03-23T00:37:56;13.40;99.90
21244;DHT22;10780;50.942;4.028;2023-03-23T00:40:24;13.40;99.90
21244;DHT22;10780;50.942;4.028;2023-03-23T00:42:49;13.40;99.90
21244;DHT22;10780;50.942;4.028;2023-03-23T00:45:15;13.40;99.90
21244;DHT22;10780;50.942;4.028;2023-03-23T00:47:42;13.40;99.90
21244;DHT22;10780;50.942;4.028;2023-03-23T00:50:13;13.40;99.90
21244;DHT22;10780;50.942;4.028;2023-03-23T00:52:40;13.30;99.90
21244;DHT22;10780;50.942;4.028;2023-03-23T00:55:06;13.30;99.90
21244;DHT22;10780;50.942;4.028;2023-03-23T00:57:32;13.30;99.90
21244;DHT22;10780;50.942;4.028;2023-03-23T00:59:58;13.30;99.90
21244;DHT22;10780;50.942;4.028;2023-03-23T01:02:24;13.30;99.90
21244;DHT22;10780;50.942;4.028;2023-03-23T01:04:52;13.30;99.90
21244;DHT22;10780;50.942;4.028;2023-03-23T01:07:19;13.30;99.90
21244;DHT22;10780;50.942;4.028;2023-03-23T01:09:46;13.30;99.90
21244;DHT22;10780;50.942;4.028;2023-03-23T01:12:13;13.40;99.90
21244;DHT22;10780;50.942;4.028;2023-03-23T01:14:40;13.50;99.90
21244;DHT22;10780;50.942;4.028;2023-03-23T01:17:06;13.50;99.90
21244;DHT22;10780;50.942;4.028;2023-03-23T01:19:32;13.50;99.90
21244;DHT22;10780;50.942;4.028;2023-03-23T01:21:58;13.40;99.90
21244;DHT22;10780;50.942;4.028;2023-03-23T01:24:23;13.40;99.90
21244;DHT22;10780;50.942;4.028;2023-03-23T01:26:49;13.50;99.90
21244;DHT22;10780;50.942;4.028;2023-03-23T01:29:15;13.50;99.90
21244;DHT22;10780;50.942;4.028;2023-03-23T01:31:41;13.40;99.90
21244;DHT22;10780;50.942;4.028;2023-03-23T01:34:08;13.50;99.90
21244;DHT22;10780;50.942;4.028;2023-03-23T01:36:34;13.50;99.90
21244;DHT22;10780;50.942;4.028;2023-03-23T01:39:01;13.50;99.90
21244;DHT22;10780;50.942;4.028;2023-03-23T01:41:29;13.50;99.90
21244;DHT22;10780;50.942;4.028;2023-03-23T01:46:29;13.40;99.90
21244;DHT22;10780;50.942;4.028;2023-03-23T01:48:57;13.40;99.90
21244;DHT22;10780;50.942;4.028;2023-03-23T01:51:24;13.40;99.90
21244;DHT22;10780;50.942;4.028;2023-03-23T01:53:55;13.40;99.90
21244;DHT22;10780;50.942;4.028;2023-03-23T01:56:25;13.40;99.90
21244;DHT22;10780;50.942;4.028;2023-03-23T01:58:55;13.40;99.90
21244;DHT22;10780;50.942;4.028;2023-03-23T02:01:22;13.40;99.90
21244;DHT22;10780;50.942;4.028;2023-03-23T02:03:51;13.40;99.90
21244;DHT22;10780;50.942;4.028;2023-03-23T02:06:18;13.30;99.90
21244;DHT22;10780;50.942;4.028;2023-03-23T02:08:43;13.40;99.90
21244;DHT22;10780;50.942;4.028;2023-03-23T02:11:18;13.30;99.90
21244;DHT22;10780;50.942;4.028;2023-03-23T02:13:44;13.30;99.90
21244;DHT22;10780;50.942;4.028;2023-03-23T02:29:41;13.30;99.90
21244;DHT22;10780;50.942;4.028;2023-03-23T02:35:03;13.20;99.90
21244;DHT22;10780;50.942;4.028;2023-03-23T02:37:37;13.20;99.90
21244;DHT22;10780;50.942;4.028;2023-03-23T02:40:12;13.20;99.90
21244;DHT22;10780;50.942;4.028;2023-03-23T02:42:42;13.20;99.90
21244;DHT22;10780;50.942;4.028;2023-03-23T02:45:10;13.10;99.90
21244;DHT22;10780;50.942;4.028;2023-03-23T02:47:38;13.10;99.90
21244;DHT22;10780;50.942;4.028;2023-03-23T02:50:08;13.20;99.90
21244;DHT22;10780;50.942;4.028;2023-03-23T02:52:38;13.20;99.90
21244;DHT22;10780;50.942;4.028;2023-03-23T02:55:06;13.30;99.90
21244;DHT22;10780;50.942;4.028;2023-03-23T02:57:33;13.20;99.90
21244;DHT22;10780;50.942;4.028;2023-03-23T02:59:59;13.20;99.90
21244;DHT22;10780;50.942;4.028;2023-03-23T03:02:30;13.20;99.90
21244;DHT22;10780;50.942;4.028;2023-03-23T03:07:35;13.40;99.90
21244;DHT22;10780;50.942;4.028;2023-03-23T03:13:25;13.30;99.90
21244;DHT22;10780;50.942;4.028;2023-03-23T03:15:49;13.40;99.90
21244;DHT22;10780;50.942;4.028;2023-03-23T03:18:28;13.30;99.90
21244;DHT22;10780;50.942;4.028;2023-03-23T03:21:00;13.30;99.90
21244;DHT22;10780;50.942;4.028;2023-03-23T03:23:28;13.30;99.90
21244;DHT22;10780;50.942;4.028;2023-03-23T03:25:55;13.30;99.90
21244;DHT22;10780;50.942;4.028;2023-03-23T03:28:23;13.20;99.90
21244;DHT22;10780;50.942;4.028;2023-03-23T03:30:54;13.30;99.90
21244;DHT22;10780;50.942;4.028;2023-03-23T03:33:22;13.30;99.90
21244;DHT22;10780;50.942;4.028;2023-03-23T03:35:53;13.30;99.90
21244;DHT22;10780;50.942;4.028;2023-03-23T03:38:20;13.30;99.90
21244;DHT22;10780;50.942;4.028;2023-03-23T03:40:46;13.30;99.90
21244;DHT22;10780;50.942;4.028;2023-03-23T03:43:11;13.20;99.90
21244;DHT22;10780;50.942;4.028;2023-03-23T03:45:37;13.30;99.90
21244;DHT22;10780;50.942;4.028;2023-03-23T03:48:03;13.30;99.90
21244;DHT22;10780;50.942;4.028;2023-03-23T03:50:29;13.30;99.90
21244;DHT22;10780;50.942;4.028;2023-03-23T03:52:54;13.30;99.90
21244;DHT22;10780;50.942;4.028;2023-03-23T03:55:20;13.30;99.90
21244;DHT22;10780;50.942;4.028;2023-03-23T03:57:46;13.30;99.90
21244;DHT22;10780;50.942;4.028;2023-03-23T04:00:12;13.30;99.90
21244;DHT22;10780;50.942;4.028;2023-03-23T04:02:41;13.20;99.90
21244;DHT22;10780;50.942;4.028;2023-03-23T04:05:07;13.20;99.90
21244;DHT22;10780;50.942;4.028;2023-03-23T04:07:34;13.30;99.90
21244;DHT22;10780;50.942;4.028;2023-03-23T04:10:04;13.20;99.90
21244;DHT22;10780;50.942;4.028;2023-03-23T04:12:31;13.20;99.90
21244;DHT22;10780;50.942;4.028;2023-03-23T04:14:57;13.10;99.90
21244;DHT22;10780;50.942;4.028;2023-03-23T04:17:23;13.20;99.90
21244;DHT22;10780;50.942;4.028;2023-03-23T04:19:51;13.20;99.90
21244;DHT22;10780;50.942;4.028;2023-03-23T04:22:17;13.20;99.90
21244;DHT22;10780;50.942;4.028;2023-03-23T04:24:43;13.10;99.90
21244;DHT22;10780;50.942;4.028;2023-03-23T04:27:08;13.10;99.90
21244;DHT22;10780;50.942;4.028;2023-03-23T04:29:34;13.10;99.90
21244;DHT22;10780;50.942;4.028;2023-03-23T04:32:00;13.00;99.90
21244;DHT22;10780;50.942;4.028;2023-03-23T04:34:27;12.90;99.90
21244;DHT22;10780;50.942;4.028;2023-03-23T04:36:53;12.80;99.90
21244;DHT22;10780;50.942;4.028;2023-03-23T04:39:19;12.80;99.90
21244;DHT22;10780;50.942;4.028;2023-03-23T04:41:44;12.80;99.90
21244;DHT22;10780;50.942;4.028;2023-03-23T04:44:12;12.70;99.90
21244;DHT22;10780;50.942;4.028;2023-03-23T04:46:43;12.60;99.90
21244;DHT22;10780;50.942;4.028;2023-03-23T04:49:10;12.60;99.90
21244;DHT22;10780;50.942;4.028;2023-03-23T04:51:36;12.60;99.90
21244;DHT22;10780;50.942;4.028;2023-03-23T04:54:04;12.60;99.90
21244;DHT22;10780;50.942;4.028;2023-03-23T04:56:30;12.70;99.90
21244;DHT22;10780;50.942;4.028;2023-03-23T04:58:55;12.70;99.90
21244;DHT22;10780;50.942;4.028;2023-03-23T05:01:21;12.70;99.90
21244;DHT22;10780;50.942;4.028;2023-03-23T05:03:47;12.70;99.90
21244;DHT22;10780;50.942;4.028;2023-03-23T05:06:13;12.80;99.90
21244;DHT22;10780;50.942;4.028;2023-03-23T05:08:38;12.80;99.90
21244;DHT22;10780;50.942;4.028;2023-03-23T05:11:05;12.80;99.90
21244;DHT22;10780;50.942;4.028;2023-03-23T05:13:32;12.90;99.90
21244;DHT22;10780;50.942;4.028;2023-03-23T05:15:58;12.90;99.90
21244;DHT22;10780;50.942;4.028;2023-03-23T05:18:24;13.00;99.90
21244;DHT22;10780;50.942;4.028;2023-03-23T05:20:49;13.00;99.90
21244;DHT22;10780;50.942;4.028;2023-03-23T05:23:18;13.00;99.90
21244;DHT22;10780;50.942;4.028;2023-03-23T05:25:53;13.00;99.90
21244;DHT22;10780;50.942;4.028;2023-03-23T05:28:18;13.00;99.90
21244;DHT22;10780;50.942;4.028;2023-03-23T05:30:44;13.10;99.90
21244;DHT22;10780;50.942;4.028;2023-03-23T05:33:09;13.10;99.90
21244;DHT22;10780;50.942;4.028;2023-03-23T05:35:35;13.10;99.90
21244;DHT22;10780;50.942;4.028;2023-03-23T05:38:01;13.00;99.90
21244;DHT22;10780;50.942;4.028;2023-03-23T05:40:28;13.00;99.90
21244;DHT22;10780;50.942;4.028;2023-03-23T05:42:55;13.00;99.90
21244;DHT22;10780;50.942;4.028;2023-03-23T05:45:24;13.00;99.90
21244;DHT22;10780;50.942;4.028;2023-03-23T05:47:50;13.00;99.90
21244;DHT22;10780;50.942;4.028;2023-03-23T05:50:16;13.00;99.90
21244;DHT22;10780;50.942;4.028;2023-03-23T05:52:43;12.90;99.90
21244;DHT22;10780;50.942;4.028;2023-03-23T05:55:09;13.00;99.90
21244;DHT22;10780;50.942;4.028;2023-03-23T05:57:35;13.00;99.90
21244;DHT22;10780;50.942;4.028;2023-03-23T06:00:01;13.10;99.90
21244;DHT22;10780;50.942;4.028;2023-03-23T06:02:38;13.10;99.90
21244;DHT22;10780;50.942;4.028;2023-03-23T06:05:05;13.10;99.90
21244;DHT22;10780;50.942;4.028;2023-03-23T06:07:32;13.10;99.90
21244;DHT22;10780;50.942;4.028;2023-03-23T06:09:57;12.90;99.90
21244;DHT22;10780;50.942;4.028;2023-03-23T06:12:23;11.90;99.90
21244;DHT22;10780;50.942;4.028;2023-03-23T06:14:49;11.50;99.90
21244;DHT22;10780;50.942;4.028;2023-03-23T06:17:15;11.20;99.90
21244;DHT22;10780;50.942;4.028;2023-03-23T06:19:43;11.00;99.90
21244;DHT22;10780;50.942;4.028;2023-03-23T06:22:09;10.80;99.90
21244;DHT22;10780;50.942;4.028;2023-03-23T06:24:36;10.70;99.90
21244;DHT22;10780;50.942;4.028;2023-03-23T06:27:01;10.70;99.90
21244;DHT22;10780;50.942;4.028;2023-03-23T06:29:27;10.60;99.90
21244;DHT22;10780;50.942;4.028;2023-03-23T06:31:58;10.50;99.90
21244;DHT22;10780;50.942;4.028;2023-03-23T06:34:25;10.50;99.90
21244;DHT22;10780;50.942;4.028;2023-03-23T06:36:50;10.50;99.90
21244;DHT22;10780;50.942;4.028;2023-03-23T06:39:17;10.40;99.90
21244;DHT22;10780;50.942;4.028;2023-03-23T06:41:42;10.40;99.90
21244;DHT22;10780;50.942;4.028;2023-03-23T06:44:08;10.40;99.90
21244;DHT22;10780;50.942;4.028;2023-03-23T06:46:38;10.50;99.90
21244;DHT22;10780;50.942;4.028;2023-03-23T06:49:04;10.30;99.90
21244;DHT22;10780;50.942;4.028;2023-03-23T06:51:30;10.30;99.90
21244;DHT22;10780;50.942;4.028;2023-03-23T06:53:56;10.20;99.90
21244;DHT22;10780;50.942;4.028;2023-03-23T06:56:23;10.20;99.90
21244;DHT22;10780;50.942;4.028;2023-03-23T06:58:48;10.30;99.90
21244;DHT22;10780;50.942;4.028;2023-03-23T07:01:14;10.30;99.90
21244;DHT22;10780;50.942;4.028;2023-03-23T07:03:41;10.30;99.90
21244;DHT22;10780;50.942;4.028;2023-03-23T07:06:08;10.40;99.90
21244;DHT22;10780;50.942;4.028;2023-03-23T07:08:36;10.40;99.90
21244;DHT22;10780;50.942;4.028;2023-03-23T07:11:02;10.50;99.90
21244;DHT22;10780;50.942;4.028;2023-03-23T07:13:29;10.60;99.90
21244;DHT22;10780;50.942;4.028;2023-03-23T07:15:55;10.60;99.90
21244;DHT22;10780;50.942;4.028;2023-03-23T07:18:21;10.60;99.90
21244;DHT22;10780;50.942;4.028;2023-03-23T07:20:51;10.70;99.90
21244;DHT22;10780;50.942;4.028;2023-03-23T07:23:18;10.90;99.90
21244;DHT22;10780;50.942;4.028;2023-03-23T07:25:44;10.90;99.90
21244;DHT22;10780;50.942;4.028;2023-03-23T07:28:13;10.90;99.90
21244;DHT22;10780;50.942;4.028;2023-03-23T07:30:40;11.00;99.90
21244;DHT22;10780;50.942;4.028;2023-03-23T07:33:08;11.10;99.90
21244;DHT22;10780;50.942;4.028;2023-03-23T07:35:35;11.20;99.90
21244;DHT22;10780;50.942;4.028;2023-03-23T07:38:02;11.30;99.90
21244;DHT22;10780;50.942;4.028;2023-03-23T07:40:28;11.30;99.90
21244;DHT22;10780;50.942;4.028;2023-03-23T07:42:56;11.30;99.90
21244;DHT22;10780;50.942;4.028;2023-03-23T07:45:23;11.40;99.90
21244;DHT22;10780;50.942;4.028;2023-03-23T07:47:50;11.50;99.90
21244;DHT22;10780;50.942;4.028;2023-03-23T07:50:16;11.70;99.90
21244;DHT22;10780;50.942;4.028;2023-03-23T07:52:43;11.60;99.90
21244;DHT22;10780;50.942;4.028;2023-03-23T07:55:10;11.60;99.90
21244;DHT22;10780;50.942;4.028;2023-03-23T07:57:43;11.70;99.90
21244;DHT22;10780;50.942;4.028;2023-03-23T08:00:09;11.90;99.90
21244;DHT22;10780;50.942;4.028;2023-03-23T08:02:40;11.90;99.90
21244;DHT22;10780;50.942;4.028;2023-03-23T08:05:07;12.00;99.90
21244;DHT22;10780;50.942;4.028;2023-03-23T08:07:34;11.90;99.90
21244;DHT22;10780;50.942;4.028;2023-03-23T08:10:00;11.80;99.90
21244;DHT22;10780;50.942;4.028;2023-03-23T08:12:26;11.90;99.90
21244;DHT22;10780;50.942;4.028;2023-03-23T08:14:52;12.10;99.90
21244;DHT22;10780;50.942;4.028;2023-03-23T08:17:19;12.20;99.90
21244;DHT22;10780;50.942;4.028;2023-03-23T08:19:45;12.40;99.90
21244;DHT22;10780;50.942;4.028;2023-03-23T08:22:11;12.40;99.90
21244;DHT22;10780;50.942;4.028;2023-03-23T08:24:40;12.40;99.90
21244;DHT22;10780;50.942;4.028;2023-03-23T08:27:06;12.30;99.90
21244;DHT22;10780;50.942;4.028;2023-03-23T08:29:32;12.50;99.90
21244;DHT22;10780;50.942;4.028;2023-03-23T08:31:58;12.70;99.90
21244;DHT22;10780;50.942;4.028;2023-03-23T08:34:24;12.70;99.90
21244;DHT22;10780;50.942;4.028;2023-03-23T08:36:50;13.00;99.90
21244;DHT22;10780;50.942;4.028;2023-03-23T08:39:17;13.10;99.90
21244;DHT22;10780;50.942;4.028;2023-03-23T08:41:43;13.00;99.90
21244;DHT22;10780;50.942;4.028;2023-03-23T08:44:10;13.00;99.90
21244;DHT22;10780;50.942;4.028;2023-03-23T08:46:35;13.20;99.90
21244;DHT22;10780;50.942;4.028;2023-03-23T08:49:01;13.40;99.90
21244;DHT22;10780;50.942;4.028;2023-03-23T08:51:27;13.60;99.90
21244;DHT22;10780;50.942;4.028;2023-03-23T08:53:53;13.30;99.90
21244;DHT22;10780;50.942;4.028;2023-03-23T08:56:20;13.20;99.90
21244;DHT22;10780;50.942;4.028;2023-03-23T08:58:45;13.10;99.90
21244;DHT22;10780;50.942;4.028;2023-03-23T09:01:11;13.00;99.90
21244;DHT22;10780;50.942;4.028;2023-03-23T09:03:37;12.90;99.90
21244;DHT22;10780;50.942;4.028;2023-03-23T09:06:04;13.00;99.90
21244;DHT22;10780;50.942;4.028;2023-03-23T09:08:31;12.80;99.90
21244;DHT22;10780;50.942;4.028;2023-03-23T09:11:02;12.80;99.90
21244;DHT22;10780;50.942;4.028;2023-03-23T09:23:40;13.00;99.90
21244;DHT22;10780;50.942;4.028;2023-03-23T09:26:10;13.00;99.90
21244;DHT22;10780;50.942;4.028;2023-03-23T09:28:35;13.00;99.90
21244;DHT22;10780;50.942;4.028;2023-03-23T09:31:01;13.10;99.90
21244;DHT22;10780;50.942;4.028;2023-03-23T09:33:27;13.00;99.90
21244;DHT22;10780;50.942;4.028;2023-03-23T09:35:58;13.10;99.90
21244;DHT22;10780;50.942;4.028;2023-03-23T09:38:24;13.20;99.90
21244;DHT22;10780;50.942;4.028;2023-03-23T09:41:28;13.30;99.90
21244;DHT22;10780;50.942;4.028;2023-03-23T09:47:04;13.60;99.90
21244;DHT22;10780;50.942;4.028;2023-03-23T09:49:36;13.50;99.90
21244;DHT22;10780;50.942;4.028;2023-03-23T09:52:10;13.50;99.90
21244;DHT22;10780;50.942;4.028;2023-03-23T09:54:39;13.60;99.90
21244;DHT22;10780;50.942;4.028;2023-03-23T09:57:16;13.70;99.90
21244;DHT22;10780;50.942;4.028;2023-03-23T10:00:01;13.90;99.90
21244;DHT22;10780;50.942;4.028;2023-03-23T10:02:38;14.30;99.90
21244;DHT22;10780;50.942;4.028;2023-03-23T10:05:30;14.60;99.90
21244;DHT22;10780;50.942;4.028;2023-03-23T10:07:59;14.80;99.90
21244;DHT22;10780;50.942;4.028;2023-03-23T10:10:35;14.80;99.90
21244;DHT22;10780;50.942;4.028;2023-03-23T10:15:52;15.40;99.90
21244;DHT22;10780;50.942;4.028;2023-03-23T10:18:43;15.40;99.90
21244;DHT22;10780;50.942;4.028;2023-03-23T10:21:14;15.50;99.90
21244;DHT22;10780;50.942;4.028;2023-03-23T10:29:01;16.20;99.90
21244;DHT22;10780;50.942;4.028;2023-03-23T10:31:37;16.20;99.90
21244;DHT22;10780;50.942;4.028;2023-03-23T10:34:20;16.80;99.90
21244;DHT22;10780;50.942;4.028;2023-03-23T10:37:44;16.50;99.90
21244;DHT22;10780;50.942;4.028;2023-03-23T10:39:54;16.60;99.90
21244;DHT22;10780;50.942;4.028;2023-03-23T10:42:26;16.70;99.90
21244;DHT22;10780;50.942;4.028;2023-03-23T10:44:53;16.70;99.90
21244;DHT22;10780;50.942;4.028;2023-03-23T10:47:20;16.70;99.90
21244;DHT22;10780;50.942;4.028;2023-03-23T10:50:00;16.90;99.90
21244;DHT22;10780;50.942;4.028;2023-03-23T10:52:40;16.60;99.90
21244;DHT22;10780;50.942;4.028;2023-03-23T10:55:15;16.10;99.90
21244;DHT22;10780;50.942;4.028;2023-03-23T10:57:43;15.70;99.90
21244;DHT22;10780;50.942;4.028;2023-03-23T11:00:24;15.40;99.90
21244;DHT22;10780;50.942;4.028;2023-03-23T11:05:56;15.10;99.90
21244;DHT22;10780;50.942;4.028;2023-03-23T11:08:29;15.30;99.90
21244;DHT22;10780;50.942;4.028;2023-03-23T11:11:36;15.10;99.90
21244;DHT22;10780;50.942;4.028;2023-03-23T11:14:23;15.20;99.90
21244;DHT22;10780;50.942;4.028;2023-03-23T11:16:55;15.20;99.90
21244;DHT22;10780;50.942;4.028;2023-03-23T11:19:32;15.10;99.90
21244;DHT22;10780;50.942;4.028;2023-03-23T11:24:33;15.00;99.90
21244;DHT22;10780;50.942;4.028;2023-03-23T11:27:00;14.90;99.90
21244;DHT22;10780;50.942;4.028;2023-03-23T11:29:27;15.10;99.90
21244;DHT22;10780;50.942;4.028;2023-03-23T11:32:14;15.40;99.90
21244;DHT22;10780;50.942;4.028;2023-03-23T11:34:47;15.50;99.90
21244;DHT22;10780;50.942;4.028;2023-03-23T11:40:23;15.60;99.90
21244;DHT22;10780;50.942;4.028;2023-03-23T11:43:08;15.40;99.90
21244;DHT22;10780;50.942;4.028;2023-03-23T11:45:37;15.30;99.90
21244;DHT22;10780;50.942;4.028;2023-03-23T11:54:02;15.90;99.90
21244;DHT22;10780;50.942;4.028;2023-03-23T11:56:36;16.50;99.90
21244;DHT22;10780;50.942;4.028;2023-03-23T11:59:09;16.80;99.90
21244;DHT22;10780;50.942;4.028;2023-03-23T12:04:24;16.90;99.90
21244;DHT22;10780;50.942;4.028;2023-03-23T12:14:53;16.70;99.90
21244;DHT22;10780;50.942;4.028;2023-03-23T12:20:27;16.70;99.90
21244;DHT22;10780;50.942;4.028;2023-03-23T12:23:25;16.80;99.90
21244;DHT22;10780;50.942;4.028;2023-03-23T12:26:09;16.80;99.90
21244;DHT22;10780;50.942;4.028;2023-03-23T12:31:38;16.50;99.90
21244;DHT22;10780;50.942;4.028;2023-03-23T12:40:09;17.40;99.90
21244;DHT22;10780;50.942;4.028;2023-03-23T12:42:58;17.80;99.90
21244;DHT22;10780;50.942;4.028;2023-03-23T12:48:32;18.50;99.90
21244;DHT22;10780;50.942;4.028;2023-03-23T12:54:05;18.30;99.90
21244;DHT22;10780;50.942;4.028;2023-03-23T12:56:42;17.90;99.90
21244;DHT22;10780;50.942;4.028;2023-03-23T12:59:22;18.00;99.90
21244;DHT22;10780;50.942;4.028;2023-03-23T13:02:20;17.80;99.90
21244;DHT22;10780;50.942;4.028;2023-03-23T13:04:52;17.40;99.90
21244;DHT22;10780;50.942;4.028;2023-03-23T13:07:27;17.20;99.90
21244;DHT22;10780;50.942;4.028;2023-03-23T13:10:03;16.80;99.90
21244;DHT22;10780;50.942;4.028;2023-03-23T13:12:32;16.50;99.90
21244;DHT22;10780;50.942;4.028;2023-03-23T13:15:30;16.40;99.90
21244;DHT22;10780;50.942;4.028;2023-03-23T13:18:20;16.50;99.90
21244;DHT22;10780;50.942;4.028;2023-03-23T13:23:48;17.50;99.90
21244;DHT22;10780;50.942;4.028;2023-03-23T13:26:19;17.80;99.90
21244;DHT22;10780;50.942;4.028;2023-03-23T13:31:20;17.80;99.90
21244;DHT22;10780;50.942;4.028;2023-03-23T13:33:57;18.10;99.90
21244;DHT22;10780;50.942;4.028;2023-03-23T13:36:35;18.00;99.90
21244;DHT22;10780;50.942;4.028;2023-03-23T13:39:04;17.70;99.90
21244;DHT22;10780;50.942;4.028;2023-03-23T13:41:33;17.50;99.90
21244;DHT22;10780;50.942;4.028;2023-03-23T13:44:17;17.50;99.90
21244;DHT22;10780;50.942;4.028;2023-03-23T13:46:54;17.70;99.90
21244;DHT22;10780;50.942;4.028;2023-03-23T13:49:21;17.70;99.90
21244;DHT22;10780;50.942;4.028;2023-03-23T13:54:46;17.80;99.90
21244;DHT22;10780;50.942;4.028;2023-03-23T13:57:36;17.90;99.90
21244;DHT22;10780;50.942;4.028;2023-03-23T14:00:25;18.00;99.90
21244;DHT22;10780;50.942;4.028;2023-03-23T14:03:24;18.00;99.90
21244;DHT22;10780;50.942;4.028;2023-03-23T14:11:02;18.00;99.90
21244;DHT22;10780;50.942;4.028;2023-03-23T14:16:39;18.40;99.90
21244;DHT22;10780;50.942;4.028;2023-03-23T14:19:27;18.50;99.90
21244;DHT22;10780;50.942;4.028;2023-03-23T14:22:01;18.40;99.90
21244;DHT22;10780;50.942;4.028;2023-03-23T14:24:32;18.10;99.90
21244;DHT22;10780;50.942;4.028;2023-03-23T14:27:21;18.10;99.90
21244;DHT22;10780;50.942;4.028;2023-03-23T14:30:02;18.10;99.90
21244;DHT22;10780;50.942;4.028;2023-03-23T14:32:30;18.10;99.90
21244;DHT22;10780;50.942;4.028;2023-03-23T14:34:58;17.90;99.90
21244;DHT22;10780;50.942;4.028;2023-03-23T14:37:25;17.80;99.90
21244;DHT22;10780;50.942;4.028;2023-03-23T14:39:53;17.60;99.90
21244;DHT22;10780;50.942;4.028;2023-03-23T14:42:29;17.10;99.90
21244;DHT22;10780;50.942;4.028;2023-03-23T14:44:56;16.60;99.90
21244;DHT22;10780;50.942;4.028;2023-03-23T14:47:29;16.30;99.90
21244;DHT22;10780;50.942;4.028;2023-03-23T14:49:58;16.30;99.90
21244;DHT22;10780;50.942;4.028;2023-03-23T14:52:35;16.40;99.90
21244;DHT22;10780;50.942;4.028;2023-03-23T14:55:18;16.80;99.90
21244;DHT22;10780;50.942;4.028;2023-03-23T14:57:45;17.20;99.90
21244;DHT22;10780;50.942;4.028;2023-03-23T16:41:53;16.70;99.90
21244;DHT22;10780;50.942;4.028;2023-03-23T16:44:18;16.70;99.90
21244;DHT22;10780;50.942;4.028;2023-03-23T16:46:44;16.70;99.90
21244;DHT22;10780;50.942;4.028;2023-03-23T16:49:10;16.60;99.90
21244;DHT22;10780;50.942;4.028;2023-03-23T16:51:35;16.50;99.90
21244;DHT22;10780;50.942;4.028;2023-03-23T16:54:01;16.50;99.90
21244;DHT22;10780;50.942;4.028;2023-03-23T16:56:27;16.30;99.90
21244;DHT22;10780;50.942;4.028;2023-03-23T16:58:52;16.20;99.90
21244;DHT22;10780;50.942;4.028;2023-03-23T17:01:18;16.20;99.90
21244;DHT22;10780;50.942;4.028;2023-03-23T17:03:44;16.40;99.90
21244;DHT22;10780;50.942;4.028;2023-03-23T17:06:09;16.30;99.90
21244;DHT22;10780;50.942;4.028;2023-03-23T17:08:35;16.20;99.90
21244;DHT22;10780;50.942;4.028;2023-03-23T17:11:01;16.30;99.90
21244;DHT22;10780;50.942;4.028;2023-03-23T17:13:27;16.10;99.90
21244;DHT22;10780;50.942;4.028;2023-03-23T17:15:54;16.00;99.90
21244;DHT22;10780;50.942;4.028;2023-03-23T17:18:22;16.00;99.90
21244;DHT22;10780;50.942;4.028;2023-03-23T17:20:48;16.00;99.90
21244;DHT22;10780;50.942;4.028;2023-03-23T17:23:14;16.00;99.90
21244;DHT22;10780;50.942;4.028;2023-03-23T17:25:43;15.90;99.90
21244;DHT22;10780;50.942;4.028;2023-03-23T17:28:09;15.90;99.90
21244;DHT22;10780;50.942;4.028;2023-03-23T17:30:39;15.90;99.90
21244;DHT22;10780;50.942;4.028;2023-03-23T17:33:05;15.90;99.90
21244;DHT22;10780;50.942;4.028;2023-03-23T17:35:30;16.00;99.90
21244;DHT22;10780;50.942;4.028;2023-03-23T17:37:56;16.00;99.90
21244;DHT22;10780;50.942;4.028;2023-03-23T17:40:22;15.70;99.90
21244;DHT22;10780;50.942;4.028;2023-03-23T17:42:48;15.60;99.90
21244;DHT22;10780;50.942;4.028;2023-03-23T17:45:13;15.60;99.90
21244;DHT22;10780;50.942;4.028;2023-03-23T17:47:39;15.60;99.90
21244;DHT22;10780;50.942;4.028;2023-03-23T17:50:06;15.60;99.90
21244;DHT22;10780;50.942;4.028;2023-03-23T17:52:32;15.60;99.90
21244;DHT22;10780;50.942;4.028;2023-03-23T17:54:58;15.60;99.90
21244;DHT22;10780;50.942;4.028;2023-03-23T17:57:23;15.60;99.90
21244;DHT22;10780;50.942;4.028;2023-03-23T17:59:49;15.70;99.90
21244;DHT22;10780;50.942;4.028;2023-03-23T18:02:15;15.70;99.90
21244;DHT22;10780;50.942;4.028;2023-03-23T18:04:43;15.60;99.90
21244;DHT22;10780;50.942;4.028;2023-03-23T18:07:09;15.70;99.90
21244;DHT22;10780;50.942;4.028;2023-03-23T18:09:35;15.70;99.90
21244;DHT22;10780;50.942;4.028;2023-03-23T18:12:01;15.70;99.90
21244;DHT22;10780;50.942;4.028;2023-03-23T18:14:26;15.70;99.90
21244;DHT22;10780;50.942;4.028;2023-03-23T18:16:52;15.60;99.90
21244;DHT22;10780;50.942;4.028;2023-03-23T18:19:18;15.60;99.90
21244;DHT22;10780;50.942;4.028;2023-03-23T18:21:44;15.60;99.90
21244;DHT22;10780;50.942;4.028;2023-03-23T18:24:09;15.50;99.90
21244;DHT22;10780;50.942;4.028;2023-03-23T18:26:35;15.50;99.90
21244;DHT22;10780;50.942;4.028;2023-03-23T18:29:01;15.40;99.90
21244;DHT22;10780;50.942;4.028;2023-03-23T18:31:27;15.50;99.90
21244;DHT22;10780;50.942;4.028;2023-03-23T18:33:53;15.40;99.90
21244;DHT22;10780;50.942;4.028;2023-03-23T18:36:22;15.40;99.90
21244;DHT22;10780;50.942;4.028;2023-03-23T18:38:49;15.30;99.90
21244;DHT22;10780;50.942;4.028;2023-03-23T18:41:16;15.20;99.90
21244;DHT22;10780;50.942;4.028;2023-03-23T18:43:42;15.20;99.90
21244;DHT22;10780;50.942;4.028;2023-03-23T18:46:08;15.10;99.90
21244;DHT22;10780;50.942;4.028;2023-03-23T18:48:34;15.10;99.90
21244;DHT22;10780;50.942;4.028;2023-03-23T18:51:01;15.10;99.90
21244;DHT22;10780;50.942;4.028;2023-03-23T18:53:27;15.00;99.90
21244;DHT22;10780;50.942;4.028;2023-03-23T18:56:09;15.00;99.90
21244;DHT22;10780;50.942;4.028;2023-03-23T18:58:35;15.00;99.90
21244;DHT22;10780;50.942;4.028;2023-03-23T19:01:02;15.00;99.90
21244;DHT22;10780;50.942;4.028;2023-03-23T19:03:28;14.90;99.90
21244;DHT22;10780;50.942;4.028;2023-03-23T19:05:57;14.90;99.90
21244;DHT22;10780;50.942;4.028;2023-03-23T19:08:23;14.90;99.90
21244;DHT22;10780;50.942;4.028;2023-03-23T19:10:49;14.90;99.90